createdAt,value
2023-02-16T00:00:53.883Z,11.60
2023-02-16T00:03:23.013Z,12.80
2023-02-16T00:05:51.401Z,13.02
2023-02-16T00:08:18.121Z,12.85
2023-02-16T00:11:08.758Z,13.20
2023-02-16T00:13:44.946Z,12.10
2023-02-16T00:16:23.487Z,13.73
2023-02-16T00:18:51.550Z,12.60
2023-02-16T00:21:19.107Z,13.13
2023-02-16T00:23:46.468Z,12.45
2023-02-16T00:26:19.606Z,13.48
2023-02-16T00:28:48.982Z,12.60
2023-02-16T00:31:18.792Z,13.68
2023-02-16T00:33:46.525Z,13.00
2023-02-16T00:36:13.538Z,13.32
2023-02-16T00:38:40.596Z,12.88
2023-02-16T00:41:36.063Z,11.70
2023-02-16T00:44:04.894Z,12.45
2023-02-16T00:46:32.348Z,11.40
2023-02-16T00:49:01.428Z,12.63
2023-02-16T00:51:28.631Z,12.32
2023-02-16T00:53:55.854Z,11.82
2023-02-16T00:56:22.923Z,13.02
2023-02-16T00:58:52.880Z,11.73
2023-02-16T01:01:31.204Z,11.52
2023-02-16T01:04:01.458Z,12.48
2023-02-16T01:06:47.046Z,11.23
2023-02-16T01:09:37.801Z,12.23
2023-02-16T01:12:09.382Z,12.40
2023-02-16T01:14:36.625Z,12.18
2023-02-16T01:17:03.825Z,12.73
2023-02-16T01:19:30.730Z,11.45
2023-02-16T01:21:57.510Z,12.93
2023-02-16T01:24:24.616Z,12.93
2023-02-16T01:26:51.488Z,12.52
2023-02-16T01:29:20.500Z,12.75
2023-02-16T01:31:48.111Z,11.93
2023-02-16T01:34:15.342Z,12.43
2023-02-16T01:36:47.487Z,11.52
2023-02-16T01:39:17.272Z,12.10
2023-02-16T01:42:08.892Z,12.07
2023-02-16T01:44:58.521Z,12.05
2023-02-16T01:47:25.254Z,12.57
2023-02-16T01:49:52.247Z,11.85
2023-02-16T01:52:38.148Z,12.20
2023-02-16T01:55:17.300Z,11.73
2023-02-16T01:57:47.743Z,11.95
2023-02-16T02:00:35.050Z,12.57
2023-02-16T02:03:23.377Z,13.15
2023-02-16T02:05:51.641Z,13.02
2023-02-16T02:08:26.355Z,11.48
2023-02-16T02:11:14.609Z,11.57
2023-02-16T02:13:47.523Z,11.35
2023-02-16T02:16:19.436Z,12.07
2023-02-16T02:18:46.351Z,11.93
2023-02-16T02:22:00.636Z,12.75
2023-02-16T02:24:48.629Z,11.77
2023-02-16T02:27:31.567Z,11.23
2023-02-16T02:30:10.372Z,11.70
2023-02-16T02:33:09.565Z,11.25
2023-02-16T02:35:45.493Z,12.15
2023-02-16T02:38:25.746Z,11.50
2023-02-16T02:42:05.007Z,11.18
2023-02-16T02:44:37.902Z,11.43
2023-02-16T02:47:04.861Z,12.25
2023-02-16T02:49:32.050Z,12.85
2023-02-16T02:51:59.403Z,11.25
2023-02-16T02:54:56.577Z,11.20
2023-02-16T02:58:05.745Z,11.32
2023-02-16T03:00:44.504Z,10.75
2023-02-16T03:03:17.698Z,10.25
2023-02-16T03:05:51.276Z,12.23
2023-02-16T03:08:23.340Z,11.27
2023-02-16T03:11:12.975Z,11.05
2023-02-16T03:13:45.301Z,10.27
2023-02-16T03:16:16.460Z,11.27
2023-02-16T03:19:04.103Z,11.23
2023-02-16T03:21:51.652Z,11.65
2023-02-16T03:24:45.601Z,10.82
2023-02-16T03:27:34.906Z,9.75
2023-02-16T03:30:02.987Z,11.82
2023-02-16T03:32:30.470Z,11.23
2023-02-16T03:34:57.569Z,11.50
2023-02-16T03:37:24.617Z,11.32
2023-02-16T03:40:09.988Z,10.38
2023-02-16T03:42:37.037Z,10.15
2023-02-16T03:45:04.909Z,11.88
2023-02-16T03:47:31.697Z,11.10
2023-02-16T03:49:58.711Z,11.27
2023-02-16T03:52:25.739Z,11.70
2023-02-16T03:54:52.478Z,11.82
2023-02-16T03:57:19.461Z,11.38
2023-02-16T03:59:46.409Z,10.80
2023-02-16T04:02:13.536Z,10.65
2023-02-16T04:04:40.334Z,9.65
2023-02-16T04:07:07.592Z,10.70
2023-02-16T04:09:34.441Z,11.00
2023-02-16T04:12:20.116Z,11.35
2023-02-16T04:14:46.982Z,11.05
2023-02-16T04:17:14.064Z,10.68
2023-02-16T04:19:41.651Z,11.43
2023-02-16T04:22:09.997Z,10.95
2023-02-16T04:24:36.965Z,10.98
2023-02-16T04:27:04.546Z,11.27
2023-02-16T04:29:31.693Z,10.90
2023-02-16T04:31:58.758Z,11.23
2023-02-16T04:34:25.846Z,10.57
2023-02-16T04:36:52.811Z,9.90
2023-02-16T04:39:20.545Z,9.35
2023-02-16T04:41:47.381Z,10.32
2023-02-16T04:44:14.524Z,10.02
2023-02-16T04:46:41.435Z,10.02
2023-02-16T04:49:08.450Z,10.50
2023-02-16T04:51:35.163Z,9.55
2023-02-16T04:54:01.952Z,10.80
2023-02-16T04:56:28.793Z,10.35
2023-02-16T04:58:56.556Z,10.50
2023-02-16T05:01:25.943Z,12.15
2023-02-16T05:03:52.849Z,11.07
2023-02-16T05:06:20.013Z,11.32
2023-02-16T05:08:47.154Z,11.23
2023-02-16T05:11:32.417Z,11.45
2023-02-16T05:14:18.476Z,11.38
2023-02-16T05:16:46.365Z,10.00
2023-02-16T05:19:13.846Z,11.75
2023-02-16T05:21:40.865Z,11.82
2023-02-16T05:24:10.051Z,12.70
2023-02-16T05:26:39.362Z,12.25
2023-02-16T05:29:06.729Z,12.43
2023-02-16T05:31:33.908Z,11.32
2023-02-16T05:34:00.961Z,10.93
2023-02-16T05:36:27.788Z,10.65
2023-02-16T05:38:54.820Z,11.02
2023-02-16T05:41:24.982Z,10.55
2023-02-16T05:43:58.070Z,10.43
2023-02-16T05:46:26.701Z,11.40
2023-02-16T05:48:53.717Z,9.73
2023-02-16T05:51:22.017Z,9.88
2023-02-16T05:53:48.965Z,9.95
2023-02-16T05:56:17.044Z,9.55
2023-02-16T05:58:44.003Z,9.25
2023-02-16T06:01:11.532Z,8.73
2023-02-16T06:03:38.635Z,9.13
2023-02-16T06:06:06.168Z,8.00
2023-02-16T06:08:33.940Z,8.23
2023-02-16T06:11:01.106Z,8.13
2023-02-16T06:13:28.061Z,9.68
2023-02-16T06:15:57.000Z,7.90
2023-02-16T06:18:25.120Z,9.00
2023-02-16T06:20:52.254Z,9.00
2023-02-16T06:23:18.993Z,7.75
2023-02-16T06:25:50.533Z,7.65
2023-02-16T06:28:17.467Z,7.53
2023-02-16T06:30:44.265Z,8.20
2023-02-16T06:33:11.651Z,7.57
2023-02-16T06:35:38.645Z,8.55
2023-02-16T06:38:05.320Z,7.78
2023-02-16T06:40:31.990Z,8.02
2023-02-16T06:42:58.747Z,7.97
2023-02-16T06:45:25.732Z,7.25
2023-02-16T06:47:52.695Z,8.13
2023-02-16T06:50:19.741Z,7.30
2023-02-16T06:52:46.643Z,7.88
2023-02-16T06:55:13.721Z,7.85
2023-02-16T06:57:40.667Z,7.82
2023-02-16T07:00:08.322Z,7.53
2023-02-16T07:02:35.942Z,8.07
2023-02-16T07:05:03.399Z,7.40
2023-02-16T07:07:31.272Z,7.38
2023-02-16T07:09:58.535Z,7.63
2023-02-16T07:12:25.378Z,8.10
2023-02-16T07:14:52.313Z,7.88
2023-02-16T07:17:19.018Z,7.82
2023-02-16T07:19:46.015Z,7.82
2023-02-16T07:22:12.957Z,7.70
2023-02-16T07:24:39.773Z,7.88
2023-02-16T07:27:07.186Z,8.35
2023-02-16T07:29:33.977Z,8.05
2023-02-16T07:32:01.005Z,8.50
2023-02-16T07:34:27.989Z,8.52
2023-02-16T07:36:54.735Z,9.25
2023-02-16T07:39:21.472Z,8.68
2023-02-16T07:41:48.269Z,8.57
2023-02-16T07:44:15.026Z,8.45
2023-02-16T07:46:41.980Z,8.82
2023-02-16T07:49:08.661Z,8.82
2023-02-16T07:51:36.384Z,7.93
2023-02-16T07:54:03.693Z,8.73
2023-02-16T07:56:32.479Z,8.77
2023-02-16T07:59:01.274Z,9.65
2023-02-16T08:01:30.099Z,9.52
2023-02-16T08:03:57.525Z,8.57
2023-02-16T08:06:24.858Z,10.02
2023-02-16T08:08:51.900Z,9.35
2023-02-16T08:11:22.006Z,9.57
2023-02-16T08:13:49.362Z,9.88
2023-02-16T08:16:19.459Z,9.80
2023-02-16T08:18:46.724Z,10.02
2023-02-16T08:21:19.169Z,10.90
2023-02-16T08:24:07.096Z,9.85
2023-02-16T08:26:39.727Z,9.70
2023-02-16T08:29:10.314Z,9.98
2023-02-16T08:31:38.643Z,10.55
2023-02-16T08:34:06.040Z,11.13
2023-02-16T08:36:38.707Z,10.30
2023-02-16T08:39:16.538Z,10.77
2023-02-16T08:41:45.073Z,10.57
2023-02-16T08:44:12.886Z,11.30
2023-02-16T08:46:42.151Z,12.50
2023-02-16T08:49:10.784Z,11.50
2023-02-16T08:51:42.542Z,11.25
2023-02-16T08:54:10.295Z,12.43
2023-02-16T08:56:37.261Z,11.40
2023-02-16T08:59:04.795Z,12.48
2023-02-16T09:01:32.618Z,12.07
2023-02-16T09:03:59.404Z,11.63
2023-02-16T09:06:26.224Z,11.65
2023-02-16T09:08:55.546Z,12.05
2023-02-16T09:11:25.810Z,13.18
2023-02-16T09:13:53.493Z,12.57
2023-02-16T09:16:25.438Z,13.43
2023-02-16T09:18:53.234Z,12.98
2023-02-16T09:21:22.439Z,13.07
2023-02-16T09:23:51.028Z,13.13
2023-02-16T09:26:21.562Z,14.75
2023-02-16T09:28:49.425Z,13.65
2023-02-16T09:31:16.215Z,15.93
2023-02-16T09:33:44.077Z,14.48
2023-02-16T09:36:12.355Z,14.88
2023-02-16T09:38:39.848Z,16.58
2023-02-16T09:41:09.473Z,14.82
2023-02-16T09:43:45.714Z,15.02
2023-02-16T09:46:15.810Z,15.75
2023-02-16T09:48:48.855Z,16.63
2023-02-16T09:51:29.513Z,16.52
2023-02-16T09:54:11.137Z,15.15
2023-02-16T09:56:55.895Z,15.45
2023-02-16T09:59:28.887Z,12.88
2023-02-16T10:02:40.250Z,16.23
2023-02-16T10:05:25.869Z,15.73
2023-02-16T10:08:04.713Z,15.20
2023-02-16T10:10:53.658Z,17.35
2023-02-16T10:13:41.892Z,16.90
2023-02-16T10:16:15.886Z,18.35
2023-02-16T10:18:49.516Z,15.38
2023-02-16T10:21:24.720Z,16.17
2023-02-16T10:23:59.795Z,16.35
2023-02-16T10:29:00.553Z,15.65
2023-02-16T10:31:43.658Z,14.50
2023-02-16T10:34:13.662Z,16.48
2023-02-16T10:37:05.929Z,16.45
2023-02-16T10:39:39.544Z,17.48
2023-02-16T10:42:46.342Z,16.48
2023-02-16T10:45:19.610Z,17.73
2023-02-16T10:47:47.534Z,15.88
2023-02-16T10:50:28.837Z,15.52
2023-02-16T10:53:00.104Z,17.42
2023-02-16T10:55:27.157Z,18.25
2023-02-16T10:57:58.563Z,17.25
2023-02-16T11:00:39.298Z,16.52
2023-02-16T11:03:12.566Z,17.80
2023-02-16T11:05:41.412Z,18.55
2023-02-16T11:08:12.936Z,17.42
2023-02-16T11:10:51.062Z,17.42
2023-02-16T11:13:37.569Z,18.25
2023-02-16T11:16:14.010Z,17.75
2023-02-16T11:18:45.406Z,17.05
2023-02-16T11:21:13.491Z,17.70
2023-02-16T11:23:42.211Z,17.33
2023-02-16T11:26:12.421Z,17.45
2023-02-16T11:28:48.108Z,18.67
2023-02-16T11:31:53.643Z,18.23
2023-02-16T11:34:27.092Z,16.75
2023-02-16T11:37:03.486Z,19.45
2023-02-16T11:39:36.377Z,18.15
2023-02-16T11:42:07.991Z,17.88
2023-02-16T11:44:52.810Z,18.85
2023-02-16T11:47:35.064Z,18.15
2023-02-16T11:50:19.509Z,17.15
2023-02-16T11:52:49.893Z,19.58
2023-02-16T11:55:27.051Z,19.08
2023-02-16T11:57:54.541Z,17.80
2023-02-16T12:00:24.860Z,17.83
2023-02-16T12:03:15.614Z,18.55
2023-02-16T12:05:53.200Z,18.33
2023-02-16T12:08:58.450Z,19.27
2023-02-16T12:11:33.384Z,19.02
2023-02-16T12:14:18.684Z,19.60
2023-02-16T12:16:57.722Z,19.27
2023-02-16T12:19:32.133Z,19.92
2023-02-16T12:22:10.133Z,21.55
2023-02-16T12:24:45.753Z,19.48
2023-02-16T12:27:30.085Z,20.02
2023-02-16T12:30:17.677Z,20.50
2023-02-16T12:33:12.161Z,19.38
2023-02-16T12:36:00.450Z,19.52
2023-02-16T12:38:46.611Z,19.90
2023-02-16T12:41:41.418Z,20.95
2023-02-16T12:44:22.364Z,21.73
2023-02-16T12:46:58.422Z,22.25
2023-02-16T12:49:36.292Z,21.25
2023-02-16T12:52:27.292Z,22.08
2023-02-16T12:55:15.513Z,23.08
2023-02-16T12:57:58.435Z,22.00
2023-02-16T13:00:37.322Z,23.35
2023-02-16T13:03:39.670Z,22.67
2023-02-16T13:06:21.708Z,21.33
2023-02-16T13:09:25.192Z,21.85
2023-02-16T13:12:02.458Z,22.67
2023-02-16T13:14:33.550Z,24.38
2023-02-16T13:17:04.627Z,23.13
2023-02-16T13:19:31.879Z,23.52
2023-02-16T13:22:23.812Z,22.13
2023-02-16T13:24:59.949Z,24.50
2023-02-16T13:27:54.893Z,23.85
2023-02-16T13:30:36.934Z,24.33
2023-02-16T13:33:16.263Z,22.77
2023-02-16T13:36:24.170Z,22.80
2023-02-16T13:38:53.804Z,23.33
2023-02-16T13:41:34.523Z,22.40
2023-02-16T13:44:11.804Z,22.77
2023-02-16T13:46:43.572Z,22.38
2023-02-16T13:49:40.503Z,26.15
2023-02-16T13:52:09.097Z,24.77
2023-02-16T13:54:44.964Z,23.80
2023-02-16T13:57:13.951Z,24.17
2023-02-16T13:59:40.930Z,22.58
2023-02-16T14:02:13.084Z,23.00
2023-02-16T14:04:40.103Z,23.65
2023-02-16T14:07:10.564Z,24.75
2023-02-16T14:09:37.611Z,24.33
2023-02-16T14:12:14.449Z,22.77
2023-02-16T14:14:44.168Z,24.10
2023-02-16T14:17:21.780Z,23.80
2023-02-16T14:19:58.145Z,22.83
2023-02-16T14:22:43.421Z,23.50
2023-02-16T14:27:59.726Z,23.50
2023-02-16T14:30:29.633Z,23.20
2023-02-16T14:33:05.476Z,23.40
2023-02-16T14:35:39.580Z,23.70
2023-02-16T14:38:24.907Z,24.20
2023-02-16T14:41:00.757Z,22.67
2023-02-16T14:43:47.550Z,22.63
2023-02-16T14:46:23.532Z,23.92
2023-02-16T14:49:18.322Z,23.58
2023-02-16T14:52:00.967Z,24.20
2023-02-16T14:55:02.063Z,23.75
2023-02-16T14:58:07.166Z,21.27
2023-02-16T15:00:44.790Z,20.88
2023-02-16T15:03:41.094Z,21.67
2023-02-16T15:06:14.483Z,20.75
2023-02-16T15:08:51.766Z,22.08
2023-02-16T15:12:01.217Z,22.58
2023-02-16T15:14:37.816Z,21.67
2023-02-16T15:17:08.170Z,20.70
2023-02-16T15:19:36.004Z,18.55
2023-02-16T15:22:30.582Z,22.30
2023-02-16T15:25:04.016Z,20.27
2023-02-16T15:27:33.335Z,22.33
2023-02-16T15:30:28.411Z,23.15
2023-02-16T15:32:59.273Z,21.95
2023-02-16T15:35:35.828Z,21.27
2023-02-16T15:38:08.803Z,23.13
2023-02-16T15:40:36.514Z,22.05
2023-02-16T15:43:10.135Z,20.70
2023-02-16T15:45:38.284Z,22.42
2023-02-16T15:48:29.666Z,23.38
2023-02-16T15:51:09.904Z,21.48
2023-02-16T15:53:53.414Z,22.95
2023-02-16T15:56:40.123Z,22.60
2023-02-16T15:59:19.234Z,22.02
2023-02-16T16:01:47.560Z,23.88
2023-02-16T16:04:25.806Z,21.92
2023-02-16T16:06:53.598Z,22.48
2023-02-16T16:09:29.625Z,23.90
2023-02-16T16:12:03.034Z,24.13
2023-02-16T16:14:33.186Z,22.25
2023-02-16T16:17:00.452Z,25.48
2023-02-16T16:19:38.518Z,23.27
2023-02-16T16:22:29.204Z,22.88
2023-02-16T16:24:56.710Z,23.42
2023-02-16T16:27:36.630Z,23.27
2023-02-16T16:30:26.432Z,21.52
2023-02-16T16:33:07.886Z,22.30
2023-02-16T16:35:43.313Z,21.67
2023-02-16T16:38:33.266Z,19.85
2023-02-16T16:41:04.182Z,22.75
2023-02-16T16:43:37.794Z,21.02
2023-02-16T16:46:07.890Z,19.95
2023-02-16T16:48:39.569Z,22.55
2023-02-16T16:51:38.285Z,20.70
2023-02-16T16:54:30.707Z,19.40
2023-02-16T16:56:57.779Z,20.10
2023-02-16T16:59:24.573Z,18.73
2023-02-16T17:01:52.976Z,19.88
2023-02-16T17:04:19.986Z,19.63
2023-02-16T17:06:46.896Z,19.25
2023-02-16T17:09:15.870Z,19.08
2023-02-16T17:11:43.653Z,18.10
2023-02-16T17:14:16.911Z,19.13
2023-02-16T17:16:46.925Z,19.10
2023-02-16T17:19:15.432Z,19.10
2023-02-16T17:21:43.025Z,18.48
2023-02-16T17:24:10.577Z,17.33
2023-02-16T17:26:38.208Z,18.65
2023-02-16T17:29:06.804Z,18.35
2023-02-16T17:31:34.467Z,17.75
2023-02-16T17:34:01.587Z,18.08
2023-02-16T17:36:28.336Z,18.42
2023-02-16T17:38:55.341Z,18.38
2023-02-16T17:41:25.713Z,17.15
2023-02-16T17:43:52.617Z,17.95
2023-02-16T17:46:21.037Z,15.70
2023-02-16T17:48:50.540Z,19.15
2023-02-16T17:51:20.262Z,19.70
2023-02-16T17:53:47.400Z,18.15
2023-02-16T17:56:15.945Z,17.30
2023-02-16T17:58:43.008Z,17.55
2023-02-16T18:01:14.926Z,18.42
2023-02-16T18:03:41.996Z,18.60
2023-02-16T18:06:13.322Z,17.77
2023-02-16T18:08:40.508Z,17.67
2023-02-16T18:11:07.509Z,17.42
2023-02-16T18:13:34.478Z,19.15
2023-02-16T18:16:04.699Z,18.63
2023-02-16T18:18:34.973Z,18.58
2023-02-16T18:21:02.823Z,16.65
2023-02-16T18:23:29.845Z,17.75
2023-02-16T18:25:56.851Z,18.55
2023-02-16T18:28:28.509Z,18.92
2023-02-16T18:30:55.717Z,17.65
2023-02-16T18:33:23.990Z,18.30
2023-02-16T18:35:52.737Z,17.80
2023-02-16T18:38:22.089Z,18.10
2023-02-16T18:40:50.096Z,20.00
2023-02-16T18:43:17.092Z,17.90
2023-02-16T18:45:44.099Z,19.48
2023-02-16T18:48:11.070Z,17.73
2023-02-16T18:50:38.316Z,16.42
2023-02-16T18:53:05.025Z,17.63
2023-02-16T18:55:33.356Z,16.90
2023-02-16T18:58:01.677Z,16.65
2023-02-16T19:00:28.775Z,17.30
2023-02-16T19:02:57.058Z,16.42
2023-02-16T19:05:24.480Z,18.08
2023-02-16T19:07:51.488Z,17.02
2023-02-16T19:10:19.456Z,16.80
2023-02-16T19:12:46.449Z,17.75
2023-02-16T19:15:13.373Z,17.15
2023-02-16T19:17:40.446Z,16.90
2023-02-16T19:20:10.048Z,15.65
2023-02-16T19:22:38.410Z,18.08
2023-02-16T19:25:07.359Z,16.70
2023-02-16T19:27:34.455Z,16.65
2023-02-16T19:30:01.581Z,15.98
2023-02-16T19:32:30.598Z,16.83
2023-02-16T19:34:57.638Z,17.27
2023-02-16T19:37:24.957Z,16.60
2023-02-16T19:39:52.032Z,16.48
2023-02-16T19:42:18.776Z,16.30
2023-02-16T19:44:45.662Z,16.45
2023-02-16T19:47:12.703Z,16.98
2023-02-16T19:49:39.845Z,17.52
2023-02-16T19:52:06.962Z,18.20
2023-02-16T19:54:36.043Z,16.75
2023-02-16T19:57:04.127Z,17.27
2023-02-16T19:59:34.505Z,17.60
2023-02-16T20:02:01.462Z,15.88
2023-02-16T20:04:28.351Z,17.02
2023-02-16T20:06:56.593Z,17.27
2023-02-16T20:09:24.314Z,16.05
2023-02-16T20:11:51.921Z,17.30
2023-02-16T20:14:19.652Z,17.20
2023-02-16T20:16:46.913Z,17.13
2023-02-16T20:19:14.503Z,18.17
2023-02-16T20:21:44.264Z,17.38
2023-02-16T20:24:12.371Z,18.95
2023-02-16T20:26:45.347Z,17.48
2023-02-16T20:29:16.467Z,18.05
2023-02-16T20:31:48.958Z,17.38
2023-02-16T20:34:15.926Z,18.67
2023-02-16T20:36:43.033Z,19.55
2023-02-16T20:39:10.161Z,19.23
2023-02-16T20:41:37.558Z,19.80
2023-02-16T20:44:05.292Z,19.20
2023-02-16T20:46:32.252Z,18.63
2023-02-16T20:49:01.904Z,19.15
2023-02-16T20:51:29.108Z,18.15
2023-02-16T20:53:55.966Z,18.75
2023-02-16T20:56:25.142Z,17.98
2023-02-16T20:58:54.002Z,19.52
2023-02-16T21:01:40.371Z,21.50
2023-02-16T21:04:08.452Z,19.25
2023-02-16T21:06:36.006Z,19.67
2023-02-16T21:09:03.966Z,20.63
2023-02-16T21:11:31.534Z,18.95
2023-02-16T21:13:58.424Z,19.17
2023-02-16T21:16:25.904Z,19.52
2023-02-16T21:18:52.884Z,18.98
2023-02-16T21:21:19.841Z,18.40
2023-02-16T21:23:49.831Z,17.75
2023-02-16T21:26:18.279Z,19.50
2023-02-16T21:28:45.377Z,18.75
2023-02-16T21:31:16.029Z,19.48
2023-02-16T21:33:43.219Z,19.17
2023-02-16T21:36:22.564Z,19.00
2023-02-16T21:38:49.701Z,18.08
2023-02-16T21:41:26.344Z,17.73
2023-02-16T21:44:09.891Z,17.10
2023-02-16T21:46:36.710Z,19.50
2023-02-16T21:49:06.404Z,18.48
2023-02-16T21:51:37.203Z,18.30
2023-02-16T21:54:08.962Z,17.88
2023-02-16T21:56:40.349Z,18.00
2023-02-16T21:59:13.697Z,18.70
2023-02-16T22:01:43.329Z,18.63
2023-02-16T22:04:16.168Z,17.42
2023-02-16T22:06:46.913Z,17.42
2023-02-16T22:09:17.700Z,17.35
2023-02-16T22:11:45.728Z,16.98
2023-02-16T22:14:12.996Z,17.65
2023-02-16T22:16:40.690Z,17.52
2023-02-16T22:19:12.462Z,15.98
2023-02-16T22:21:41.772Z,16.33
2023-02-16T22:24:11.285Z,16.50
2023-02-16T22:26:38.233Z,16.67
2023-02-16T22:29:07.508Z,15.68
2023-02-16T22:31:34.553Z,15.13
2023-02-16T22:34:04.549Z,17.05
2023-02-16T22:36:31.660Z,17.35
2023-02-16T22:38:58.751Z,16.85
2023-02-16T22:41:26.366Z,16.80
2023-02-16T22:43:55.381Z,17.83
2023-02-16T22:46:24.385Z,16.17
2023-02-16T22:48:52.342Z,16.88
2023-02-16T22:51:21.244Z,15.35
2023-02-16T22:53:48.805Z,16.35
2023-02-16T22:56:17.864Z,16.35
2023-02-16T22:58:45.621Z,16.35
2023-02-16T23:01:15.086Z,16.17
2023-02-16T23:03:42.964Z,15.77
2023-02-16T23:06:19.259Z,15.85
2023-02-16T23:08:47.033Z,15.65
2023-02-16T23:11:13.911Z,16.77
2023-02-16T23:13:40.561Z,14.85
2023-02-16T23:16:13.074Z,17.08
2023-02-16T23:18:40.315Z,15.48
2023-02-16T23:21:16.273Z,15.88
2023-02-16T23:23:43.230Z,16.17
2023-02-16T23:26:10.498Z,14.52
2023-02-16T23:28:39.414Z,15.98
2023-02-16T23:31:06.833Z,16.13
2023-02-16T23:33:34.154Z,16.63
2023-02-16T23:36:01.355Z,17.92
2023-02-16T23:38:31.082Z,16.15
2023-02-16T23:41:03.091Z,16.50
2023-02-16T23:43:30.457Z,16.45
2023-02-16T23:45:57.818Z,14.13
2023-02-16T23:48:24.818Z,15.65
2023-02-16T23:50:52.725Z,15.52
2023-02-16T23:53:21.381Z,15.20
2023-02-16T23:55:58.534Z,16.38
2023-02-16T23:58:27.613Z,16.30
